createdAt,value
2019-04-14T00:00:01.208Z,1017.38
2019-04-14T00:01:02.186Z,1017.38
2019-04-14T00:02:01.099Z,1017.38
2019-04-14T00:03:02.223Z,1017.38
2019-04-14T00:04:00.974Z,1017.37
2019-04-14T00:05:01.867Z,1017.37
2019-04-14T00:06:00.934Z,1017.39
2019-04-14T00:07:01.559Z,1017.32
2019-04-14T00:08:00.867Z,1017.34
2019-04-14T00:09:01.088Z,1017.31
2019-04-14T00:10:00.860Z,1017.36
2019-04-14T00:11:01.778Z,1017.32
2019-04-14T00:12:02.102Z,1017.32
2019-04-14T00:13:00.776Z,1017.29
2019-04-14T00:14:00.947Z,1017.30
2019-04-14T00:15:00.689Z,1017.35
2019-04-14T00:16:00.936Z,1017.31
2019-04-14T00:17:00.643Z,1017.33
2019-04-14T00:18:01.025Z,1017.28
2019-04-14T00:19:00.584Z,1017.32
2019-04-14T00:20:00.998Z,1017.29
2019-04-14T00:21:00.534Z,1017.28
2019-04-14T00:22:00.847Z,1017.26
2019-04-14T00:23:00.483Z,1017.25
2019-04-14T00:24:00.865Z,1017.25
2019-04-14T00:25:00.431Z,1017.28
2019-04-14T00:26:00.819Z,1017.26
2019-04-14T00:27:00.385Z,1017.28
2019-04-14T00:28:00.776Z,1017.29
2019-04-14T00:29:00.329Z,1017.27
2019-04-14T00:30:01.149Z,1017.28
2019-04-14T00:31:00.276Z,1017.30
2019-04-14T00:32:00.881Z,1017.30
2019-04-14T00:33:00.243Z,1017.27
2019-04-14T00:34:00.707Z,1017.26
2019-04-14T00:35:00.181Z,1017.28
2019-04-14T00:36:00.258Z,1017.27
2019-04-14T00:37:01.181Z,1017.27
2019-04-14T00:38:01.209Z,1017.27
2019-04-14T00:39:00.918Z,1017.23
2019-04-14T00:40:00.065Z,1017.19
2019-04-14T00:41:00.702Z,1017.20
2019-04-14T00:42:02.124Z,1017.19
2019-04-14T00:43:00.568Z,1017.19
2019-04-14T00:43:59.952Z,1017.19
2019-04-14T00:45:00.448Z,1017.18
2019-04-14T00:46:01.379Z,1017.14
2019-04-14T00:47:00.608Z,1017.13
2019-04-14T00:48:07.481Z,1017.14
2019-04-14T00:49:00.602Z,1017.12
2019-04-14T00:49:59.794Z,1017.14
2019-04-14T00:51:00.582Z,1017.09
2019-04-14T00:51:59.777Z,1017.13
2019-04-14T00:52:59.727Z,1017.10
2019-04-14T00:54:00.190Z,1017.11
2019-04-14T00:54:59.687Z,1017.13
2019-04-14T00:55:59.782Z,1017.14
2019-04-14T00:57:00.816Z,1017.09
2019-04-14T00:57:59.588Z,1017.16
2019-04-14T00:59:00.574Z,1017.10
2019-04-14T00:59:59.613Z,1017.15
2019-04-14T01:01:00.456Z,1017.11
2019-04-14T01:01:59.504Z,1017.14
2019-04-14T01:03:00.383Z,1017.12
2019-04-14T01:03:59.438Z,1017.09
2019-04-14T01:05:00.127Z,1017.10
2019-04-14T01:05:59.393Z,1017.10
2019-04-14T01:07:00.118Z,1017.08
2019-04-14T01:07:59.337Z,1017.12
2019-04-14T01:08:59.946Z,1017.03
2019-04-14T01:09:59.675Z,1017.04
2019-04-14T01:10:59.259Z,1017.07
2019-04-14T01:11:59.512Z,1017.07
2019-04-14T01:12:59.203Z,1017.08
2019-04-14T01:13:59.424Z,1017.03
2019-04-14T01:14:59.150Z,1017.01
2019-04-14T01:16:07.006Z,1017.05
2019-04-14T01:17:00.389Z,1017.03
2019-04-14T01:17:59.317Z,1017.04
2019-04-14T01:19:00.363Z,1017.00
2019-04-14T01:19:59.279Z,1017.02
2019-04-14T01:21:00.185Z,1017.01
2019-04-14T01:21:58.977Z,1016.98
2019-04-14T01:22:59.831Z,1016.97
2019-04-14T01:23:58.970Z,1016.97
2019-04-14T01:24:59.927Z,1017.01
2019-04-14T01:25:58.871Z,1016.99
2019-04-14T01:26:59.545Z,1016.98
2019-04-14T01:27:58.839Z,1017.01
2019-04-14T01:28:59.345Z,1017.06
2019-04-14T01:29:58.767Z,1017.04
2019-04-14T01:30:59.029Z,1017.05
2019-04-14T01:31:58.713Z,1017.08
2019-04-14T01:32:58.921Z,1017.06
2019-04-14T01:33:59.690Z,1017.12
2019-04-14T01:34:58.902Z,1017.07
2019-04-14T01:35:59.620Z,1017.08
2019-04-14T01:36:58.604Z,1017.10
2019-04-14T01:37:59.452Z,1017.10
2019-04-14T01:38:58.550Z,1017.13
2019-04-14T01:39:58.889Z,1017.09
2019-04-14T01:40:58.493Z,1017.09
2019-04-14T01:41:58.566Z,1017.09
2019-04-14T01:42:59.497Z,1017.13
2019-04-14T01:43:58.415Z,1017.15
2019-04-14T01:44:59.261Z,1017.12
2019-04-14T01:46:07.789Z,1017.09
2019-04-14T01:46:58.825Z,1017.15
2019-04-14T01:47:59.492Z,1017.13
2019-04-14T01:48:58.643Z,1017.15
2019-04-14T01:49:59.394Z,1017.14
2019-04-14T01:50:58.386Z,1017.16
2019-04-14T01:51:59.221Z,1017.14
2019-04-14T01:52:58.906Z,1017.17
2019-04-14T01:53:58.146Z,1017.15
2019-04-14T01:54:58.326Z,1017.18
2019-04-14T01:55:59.137Z,1017.15
2019-04-14T01:56:58.171Z,1017.16
2019-04-14T01:57:58.886Z,1017.17
2019-04-14T01:58:58.048Z,1017.16
2019-04-14T01:59:58.863Z,1017.16
2019-04-14T02:00:57.962Z,1017.19
2019-04-14T02:01:58.696Z,1017.13
2019-04-14T02:02:57.912Z,1017.15
2019-04-14T02:03:58.456Z,1017.14
2019-04-14T02:04:57.862Z,1017.18
2019-04-14T02:05:58.265Z,1017.14
2019-04-14T02:06:57.807Z,1017.17
2019-04-14T02:07:58.028Z,1017.18
2019-04-14T02:08:58.873Z,1017.16
2019-04-14T02:09:57.731Z,1017.19
2019-04-14T02:10:58.728Z,1017.19
2019-04-14T02:11:57.675Z,1017.21
2019-04-14T02:12:58.450Z,1017.19
2019-04-14T02:13:57.625Z,1017.20
2019-04-14T02:15:02.855Z,1017.20
2019-04-14T02:15:57.576Z,1017.18
2019-04-14T02:17:00.519Z,1017.15
2019-04-14T02:17:58.793Z,1017.22
2019-04-14T02:18:58.621Z,1017.20
2019-04-14T02:19:58.856Z,1017.21
2019-04-14T02:20:57.890Z,1017.21
2019-04-14T02:21:58.449Z,1017.21
2019-04-14T02:22:57.545Z,1017.22
2019-04-14T02:23:58.306Z,1017.23
2019-04-14T02:24:57.338Z,1017.24
2019-04-14T02:25:57.982Z,1017.25
2019-04-14T02:26:57.309Z,1017.23
2019-04-14T02:27:57.951Z,1017.24
2019-04-14T02:28:57.250Z,1017.21
2019-04-14T02:29:58.229Z,1017.23
2019-04-14T02:31:10.217Z,1017.21
2019-04-14T02:32:25.518Z,1017.22
2019-04-14T02:33:26.050Z,1017.23
2019-04-14T02:34:34.664Z,1017.24
2019-04-14T02:36:36.223Z,1017.26
2019-04-14T02:38:34.206Z,1017.26
2019-04-14T02:39:38.620Z,1017.23
2019-04-14T02:40:29.209Z,1017.27
2019-04-14T02:43:29.436Z,1017.29
2019-04-14T02:45:29.968Z,1017.27
2019-04-14T02:46:20.494Z,1017.30
2019-04-14T02:49:31.011Z,1017.29
2019-04-14T02:50:24.531Z,1017.33
2019-04-14T02:51:33.550Z,1017.30
2019-04-14T02:52:32.762Z,1017.29
2019-04-14T02:53:23.971Z,1017.27
2019-04-14T02:54:27.525Z,1017.31
2019-04-14T02:55:15.204Z,1017.30
2019-04-14T02:56:21.815Z,1017.31
2019-04-14T02:57:23.019Z,1017.28
2019-04-14T02:58:32.728Z,1017.30
2019-04-14T02:59:22.373Z,1017.32
2019-04-14T03:00:24.638Z,1017.33
2019-04-14T03:02:30.370Z,1017.32
2019-04-14T03:03:41.539Z,1017.32
2019-04-14T03:04:21.517Z,1017.33
2019-04-14T03:05:19.603Z,1017.36
2019-04-14T03:06:18.474Z,1017.34
2019-04-14T03:07:34.284Z,1017.32
2019-04-14T03:08:26.026Z,1017.37
2019-04-14T03:09:32.043Z,1017.39
2019-04-14T03:10:28.196Z,1017.38
2019-04-14T03:11:24.570Z,1017.38
2019-04-14T03:12:25.112Z,1017.35
2019-04-14T03:13:21.082Z,1017.37
2019-04-14T03:14:23.390Z,1017.37
2019-04-14T03:15:29.544Z,1017.36
2019-04-14T03:16:41.728Z,1017.38
2019-04-14T03:17:41.868Z,1017.38
2019-04-14T03:18:35.178Z,1017.37
2019-04-14T03:19:29.808Z,1017.37
2019-04-14T03:21:29.907Z,1017.37
2019-04-14T03:23:30.344Z,1017.36
2019-04-14T03:24:24.196Z,1017.42
2019-04-14T03:25:11.391Z,1017.42
2019-04-14T03:26:23.050Z,1017.41
2019-04-14T03:27:22.845Z,1017.37
2019-04-14T03:28:17.531Z,1017.37
2019-04-14T03:29:20.968Z,1017.39
2019-04-14T03:30:46.118Z,1017.41
2019-04-14T03:31:37.671Z,1017.41
2019-04-14T03:32:39.682Z,1017.41
2019-04-14T03:33:57.233Z,1017.40
2019-04-14T03:34:34.674Z,1017.38
2019-04-14T03:38:26.328Z,1017.36
2019-04-14T03:39:29.267Z,1017.40
2019-04-14T03:40:28.523Z,1017.40
2019-04-14T03:41:24.032Z,1017.39
2019-04-14T03:42:31.338Z,1017.40
2019-04-14T03:45:30.043Z,1017.38
2019-04-14T03:46:25.533Z,1017.37
2019-04-14T03:47:20.072Z,1017.39
2019-04-14T03:48:45.169Z,1017.42
2019-04-14T03:49:26.444Z,1017.38
2019-04-14T03:52:26.898Z,1017.33
2019-04-14T03:53:23.326Z,1017.35
2019-04-14T03:54:15.593Z,1017.34
2019-04-14T03:55:15.160Z,1017.36
2019-04-14T03:56:00.659Z,1017.36
2019-04-14T03:56:55.728Z,1017.32
2019-04-14T03:57:54.880Z,1017.36
2019-04-14T03:58:55.412Z,1017.34
2019-04-14T03:59:54.831Z,1017.32
2019-04-14T04:00:55.396Z,1017.30
2019-04-14T04:01:54.788Z,1017.28
2019-04-14T04:02:55.471Z,1017.30
2019-04-14T04:03:54.723Z,1017.31
2019-04-14T04:04:55.531Z,1017.29
2019-04-14T04:05:54.681Z,1017.29
2019-04-14T04:06:55.354Z,1017.34
2019-04-14T04:07:54.614Z,1017.34
2019-04-14T04:08:55.246Z,1017.35
2019-04-14T04:09:54.568Z,1017.41
2019-04-14T04:10:55.413Z,1017.42
2019-04-14T04:11:54.539Z,1017.41
2019-04-14T04:12:55.382Z,1017.41
2019-04-14T04:13:54.457Z,1017.39
2019-04-14T04:14:55.285Z,1017.41
2019-04-14T04:15:54.404Z,1017.43
2019-04-14T04:16:55.128Z,1017.42
2019-04-14T04:17:54.349Z,1017.46
2019-04-14T04:19:02.483Z,1017.47
2019-04-14T04:19:55.517Z,1017.48
2019-04-14T04:20:54.482Z,1017.48
2019-04-14T04:21:55.232Z,1017.47
2019-04-14T04:22:54.412Z,1017.50
2019-04-14T04:23:55.350Z,1017.52
2019-04-14T04:24:54.375Z,1017.53
2019-04-14T04:25:55.094Z,1017.54
2019-04-14T04:26:54.113Z,1017.57
2019-04-14T04:27:54.756Z,1017.58
2019-04-14T04:28:54.094Z,1017.57
2019-04-14T04:29:54.802Z,1017.57
2019-04-14T04:30:54.004Z,1017.57
2019-04-14T04:31:54.717Z,1017.57
2019-04-14T04:32:53.962Z,1017.56
2019-04-14T04:33:54.445Z,1017.62
2019-04-14T04:34:53.898Z,1017.59
2019-04-14T04:35:54.337Z,1017.61
2019-04-14T04:36:53.845Z,1017.63
2019-04-14T04:37:54.145Z,1017.61
2019-04-14T04:38:53.794Z,1017.68
2019-04-14T04:39:54.052Z,1017.71
2019-04-14T04:40:54.995Z,1017.70
2019-04-14T04:41:53.856Z,1017.76
2019-04-14T04:42:54.719Z,1017.74
2019-04-14T04:43:53.920Z,1017.74
2019-04-14T04:44:53.664Z,1017.74
2019-04-14T04:45:53.854Z,1017.77
2019-04-14T04:46:54.805Z,1017.78
2019-04-14T04:47:53.574Z,1017.81
2019-04-14T04:49:03.384Z,1017.83
2019-04-14T04:49:53.499Z,1017.81
2019-04-14T04:50:54.234Z,1017.82
2019-04-14T04:51:53.457Z,1017.86
2019-04-14T04:52:54.021Z,1017.83
2019-04-14T04:53:53.395Z,1017.82
2019-04-14T04:54:53.822Z,1017.86
2019-04-14T04:55:54.553Z,1017.81
2019-04-14T04:56:53.771Z,1017.79
2019-04-14T04:57:54.344Z,1017.81
2019-04-14T04:58:54.339Z,1017.79
2019-04-14T04:59:53.981Z,1017.78
2019-04-14T05:00:54.935Z,1017.77
2019-04-14T05:01:53.882Z,1017.81
2019-04-14T05:02:53.151Z,1017.81
2019-04-14T05:03:53.602Z,1017.82
2019-04-14T05:04:53.097Z,1017.81
2019-04-14T05:05:53.561Z,1017.85
2019-04-14T05:06:53.079Z,1017.83
2019-04-14T05:07:53.309Z,1017.84
2019-04-14T05:08:52.995Z,1017.83
2019-04-14T05:09:53.440Z,1017.86
2019-04-14T05:10:52.949Z,1017.89
2019-04-14T05:11:55.138Z,1017.88
2019-04-14T05:12:52.884Z,1017.88
2019-04-14T05:13:53.317Z,1017.85
2019-04-14T05:14:52.832Z,1017.89
2019-04-14T05:15:53.223Z,1017.90
2019-04-14T05:16:52.892Z,1017.92
2019-04-14T05:17:53.763Z,1017.92
2019-04-14T05:18:53.010Z,1017.93
2019-04-14T05:19:53.960Z,1017.93
2019-04-14T05:20:53.234Z,1017.90
2019-04-14T05:21:53.747Z,1017.89
2019-04-14T05:22:52.936Z,1017.91
2019-04-14T05:23:53.770Z,1017.91
2019-04-14T05:24:52.886Z,1017.91
2019-04-14T05:25:53.763Z,1017.94
2019-04-14T05:26:52.750Z,1017.96
2019-04-14T05:27:53.704Z,1017.92
2019-04-14T05:28:52.765Z,1017.97
2019-04-14T05:29:53.593Z,1018.01
2019-04-14T05:30:52.574Z,1018.00
2019-04-14T05:31:53.295Z,1017.95
2019-04-14T05:32:52.349Z,1017.97
2019-04-14T05:33:53.301Z,1017.98
2019-04-14T05:34:52.294Z,1017.98
2019-04-14T05:35:53.187Z,1017.97
2019-04-14T05:36:52.249Z,1017.99
2019-04-14T05:37:52.997Z,1017.99
2019-04-14T05:38:52.191Z,1018.01
2019-04-14T05:39:52.695Z,1018.01
2019-04-14T05:40:52.133Z,1018.02
2019-04-14T05:42:00.606Z,1018.05
2019-04-14T05:42:52.081Z,1018.03
2019-04-14T05:43:57.067Z,1018.03
2019-04-14T05:44:52.073Z,1018.06
2019-04-14T05:45:52.306Z,1018.05
2019-04-14T05:46:51.972Z,1018.06
2019-04-14T05:47:52.278Z,1018.07
2019-04-14T05:48:51.921Z,1018.11
2019-04-14T05:49:54.975Z,1018.12
2019-04-14T05:50:51.866Z,1018.12
2019-04-14T05:51:52.426Z,1018.12
2019-04-14T05:52:51.821Z,1018.14
2019-04-14T05:53:52.406Z,1018.15
2019-04-14T05:54:51.760Z,1018.15
2019-04-14T05:55:52.525Z,1018.18
2019-04-14T05:56:51.706Z,1018.18
2019-04-14T05:57:52.476Z,1018.15
2019-04-14T05:58:51.656Z,1018.23
2019-04-14T05:59:52.674Z,1018.20
2019-04-14T06:00:51.833Z,1018.22
2019-04-14T06:01:51.574Z,1018.20
2019-04-14T06:02:52.644Z,1018.22
2019-04-14T06:03:51.805Z,1018.21
2019-04-14T06:04:52.490Z,1018.19
2019-04-14T06:05:51.467Z,1018.16
2019-04-14T06:06:51.442Z,1018.20
2019-04-14T06:07:51.415Z,1018.18
2019-04-14T06:08:51.400Z,1018.21
2019-04-14T06:09:51.382Z,1018.21
2019-04-14T06:10:51.333Z,1018.19
2019-04-14T06:11:51.319Z,1018.24
2019-04-14T06:12:51.298Z,1018.23
2019-04-14T06:13:51.257Z,1018.21
2019-04-14T06:14:51.232Z,1018.26
2019-04-14T06:15:51.205Z,1018.28
2019-04-14T06:16:51.177Z,1018.29
2019-04-14T06:17:51.154Z,1018.29
2019-04-14T06:18:51.127Z,1018.34
2019-04-14T06:19:51.098Z,1018.37
2019-04-14T06:20:51.087Z,1018.33
2019-04-14T06:21:51.044Z,1018.37
2019-04-14T06:22:51.018Z,1018.36
2019-04-14T06:23:51.009Z,1018.33
2019-04-14T06:24:51.077Z,1018.33
2019-04-14T06:25:50.942Z,1018.36
2019-04-14T06:26:50.918Z,1018.35
2019-04-14T06:27:50.888Z,1018.33
2019-04-14T06:28:50.887Z,1018.35
2019-04-14T06:29:50.836Z,1018.36
2019-04-14T06:30:50.809Z,1018.37
2019-04-14T06:31:50.810Z,1018.40
2019-04-14T06:32:50.756Z,1018.39
2019-04-14T06:33:50.731Z,1018.43
2019-04-14T06:34:50.722Z,1018.43
2019-04-14T06:35:50.683Z,1018.43
2019-04-14T06:36:50.658Z,1018.40
2019-04-14T06:37:50.631Z,1018.39
2019-04-14T06:38:50.601Z,1018.42
2019-04-14T06:39:51.534Z,1018.47
2019-04-14T06:40:50.562Z,1018.44
2019-04-14T06:41:50.522Z,1018.47
2019-04-14T06:42:50.499Z,1018.48
2019-04-14T06:43:50.475Z,1018.48
2019-04-14T06:44:50.447Z,1018.46
2019-04-14T06:45:50.419Z,1018.49
2019-04-14T06:46:50.416Z,1018.48
2019-04-14T06:47:50.367Z,1018.49
2019-04-14T06:48:50.410Z,1018.48
2019-04-14T06:49:50.317Z,1018.52
2019-04-14T06:50:50.290Z,1018.46
2019-04-14T06:51:50.262Z,1018.48
2019-04-14T06:52:50.239Z,1018.61
2019-04-14T06:53:50.236Z,1018.62
2019-04-14T06:54:50.184Z,1018.61
2019-04-14T06:55:50.165Z,1018.59
2019-04-14T06:56:50.157Z,1018.58
2019-04-14T06:57:50.109Z,1018.62
2019-04-14T06:58:50.083Z,1018.58
2019-04-14T06:59:50.059Z,1018.59
2019-04-14T07:00:50.032Z,1018.62
2019-04-14T07:01:50.012Z,1018.59
2019-04-14T07:02:50.008Z,1018.66
2019-04-14T07:03:49.957Z,1018.63
2019-04-14T07:04:49.927Z,1018.65
2019-04-14T07:05:49.915Z,1018.64
2019-04-14T07:06:51.394Z,1018.64
2019-04-14T07:07:56.777Z,1018.64
2019-04-14T07:08:49.826Z,1018.62
2019-04-14T07:09:49.801Z,1018.66
2019-04-14T07:10:49.895Z,1018.67
2019-04-14T07:11:49.749Z,1018.65
2019-04-14T07:12:49.744Z,1018.65
2019-04-14T07:13:49.816Z,1018.68
2019-04-14T07:14:49.704Z,1018.63
2019-04-14T07:15:49.670Z,1018.67
2019-04-14T07:16:51.423Z,1018.66
2019-04-14T07:17:49.597Z,1018.68
2019-04-14T07:18:49.589Z,1018.68
2019-04-14T07:20:01.347Z,1018.62
2019-04-14T07:20:49.524Z,1018.64
2019-04-14T07:21:49.506Z,1018.66
2019-04-14T07:22:49.468Z,1018.65
2019-04-14T07:23:49.443Z,1018.70
2019-04-14T07:24:49.418Z,1018.69
2019-04-14T07:25:49.394Z,1018.71
2019-04-14T07:26:49.449Z,1018.73
2019-04-14T07:27:49.343Z,1018.71
2019-04-14T07:28:56.485Z,1018.71
2019-04-14T07:29:49.295Z,1018.69
2019-04-14T07:30:49.269Z,1018.71
2019-04-14T07:31:49.265Z,1018.69
2019-04-14T07:32:49.219Z,1018.67
2019-04-14T07:33:49.220Z,1018.68
2019-04-14T07:34:49.171Z,1018.70
2019-04-14T07:35:49.208Z,1018.66
2019-04-14T07:36:49.164Z,1018.71
2019-04-14T07:37:49.094Z,1018.73
2019-04-14T07:38:49.069Z,1018.71
2019-04-14T07:39:49.049Z,1018.66
2019-04-14T07:40:49.019Z,1018.66
2019-04-14T07:41:48.991Z,1018.71
2019-04-14T07:42:48.968Z,1018.69
2019-04-14T07:43:48.962Z,1018.70
2019-04-14T07:44:48.921Z,1018.71
2019-04-14T07:45:48.895Z,1018.67
2019-04-14T07:46:48.870Z,1018.64
2019-04-14T07:47:48.844Z,1018.62
2019-04-14T07:48:48.824Z,1018.62
2019-04-14T07:49:48.796Z,1018.66
2019-04-14T07:50:48.769Z,1018.67
2019-04-14T07:51:48.744Z,1018.63
2019-04-14T07:52:48.719Z,1018.64
2019-04-14T07:53:48.694Z,1018.65
2019-04-14T07:54:48.670Z,1018.67
2019-04-14T07:55:48.646Z,1018.69
2019-04-14T07:56:48.619Z,1018.67
2019-04-14T07:57:48.614Z,1018.72
2019-04-14T07:58:48.569Z,1018.72
2019-04-14T07:59:48.545Z,1018.70
2019-04-14T08:00:48.527Z,1018.69
2019-04-14T08:01:48.501Z,1018.67
2019-04-14T08:02:48.474Z,1018.68
2019-04-14T08:03:48.447Z,1018.66
2019-04-14T08:04:48.437Z,1018.70
2019-04-14T08:05:48.432Z,1018.70
2019-04-14T08:06:48.377Z,1018.71
2019-04-14T08:07:48.349Z,1018.73
2019-04-14T08:08:48.324Z,1018.73
2019-04-14T08:09:48.302Z,1018.76
2019-04-14T08:10:48.300Z,1018.70
2019-04-14T08:11:48.299Z,1018.71
2019-04-14T08:12:48.237Z,1018.71
2019-04-14T08:13:48.206Z,1018.72
2019-04-14T08:14:48.177Z,1018.69
2019-04-14T08:15:48.154Z,1018.70
2019-04-14T08:16:48.132Z,1018.71
2019-04-14T08:17:48.106Z,1018.70
2019-04-14T08:18:48.085Z,1018.71
2019-04-14T08:19:48.060Z,1018.71
2019-04-14T08:20:48.033Z,1018.77
2019-04-14T08:21:48.058Z,1018.78
2019-04-14T08:22:47.988Z,1018.78
2019-04-14T08:23:47.962Z,1018.75
2019-04-14T08:24:47.940Z,1018.77
2019-04-14T08:25:47.916Z,1018.80
2019-04-14T08:26:47.890Z,1018.76
2019-04-14T08:27:47.866Z,1018.74
2019-04-14T08:28:47.840Z,1018.76
2019-04-14T08:29:47.820Z,1018.75
2019-04-14T08:30:47.798Z,1018.74
2019-04-14T08:31:47.770Z,1018.74
2019-04-14T08:32:47.749Z,1018.73
2019-04-14T08:33:47.723Z,1018.70
2019-04-14T08:34:47.703Z,1018.73
2019-04-14T08:35:47.674Z,1018.73
2019-04-14T08:36:47.651Z,1018.70
2019-04-14T08:37:47.633Z,1018.70
2019-04-14T08:38:47.602Z,1018.71
2019-04-14T08:39:47.582Z,1018.73
2019-04-14T08:40:47.580Z,1018.73
2019-04-14T08:41:47.532Z,1018.71
2019-04-14T08:42:47.509Z,1018.76
2019-04-14T08:43:47.485Z,1018.72
2019-04-14T08:44:47.465Z,1018.72
2019-04-14T08:45:47.441Z,1018.72
2019-04-14T08:46:47.415Z,1018.75
2019-04-14T08:47:47.403Z,1018.74
2019-04-14T08:48:47.391Z,1018.77
2019-04-14T08:49:47.344Z,1018.75
2019-04-14T08:50:47.321Z,1018.75
2019-04-14T08:51:47.301Z,1018.72
2019-04-14T08:52:47.277Z,1018.76
2019-04-14T08:53:47.253Z,1018.77
2019-04-14T08:54:47.226Z,1018.77
2019-04-14T08:55:47.231Z,1018.75
2019-04-14T08:56:47.187Z,1018.76
2019-04-14T08:57:47.157Z,1018.70
2019-04-14T08:58:47.135Z,1018.70
2019-04-14T08:59:47.130Z,1018.71
2019-04-14T09:00:47.086Z,1018.70
2019-04-14T09:01:47.087Z,1018.72
2019-04-14T09:02:47.143Z,1018.72
2019-04-14T09:03:47.019Z,1018.73
2019-04-14T09:04:46.997Z,1018.72
2019-04-14T09:05:47.026Z,1018.75
2019-04-14T09:06:46.951Z,1018.74
2019-04-14T09:07:46.934Z,1018.75
2019-04-14T09:08:46.906Z,1018.75
2019-04-14T09:09:46.946Z,1018.73
2019-04-14T09:10:46.859Z,1018.77
2019-04-14T09:11:46.847Z,1018.78
2019-04-14T09:12:46.818Z,1018.75
2019-04-14T09:13:46.792Z,1018.78
2019-04-14T09:14:56.182Z,1018.80
2019-04-14T09:15:46.745Z,1018.76
2019-04-14T09:16:46.721Z,1018.79
2019-04-14T09:17:46.700Z,1018.77
2019-04-14T09:18:46.683Z,1018.74
2019-04-14T09:19:46.656Z,1018.73
2019-04-14T09:20:52.526Z,1018.72
2019-04-14T09:21:46.609Z,1018.66
2019-04-14T09:22:46.586Z,1018.70
2019-04-14T09:23:46.563Z,1018.72
2019-04-14T09:24:46.573Z,1018.71
2019-04-14T09:25:46.522Z,1018.66
2019-04-14T09:26:46.551Z,1018.66
2019-04-14T09:27:46.473Z,1018.67
2019-04-14T09:28:46.456Z,1018.68
2019-04-14T09:29:46.430Z,1018.68
2019-04-14T09:30:46.412Z,1018.69
2019-04-14T09:31:46.385Z,1018.67
2019-04-14T09:32:46.377Z,1018.71
2019-04-14T09:33:46.347Z,1018.73
2019-04-14T09:34:46.320Z,1018.72
2019-04-14T09:35:46.297Z,1018.75
2019-04-14T09:36:46.276Z,1018.70
2019-04-14T09:37:46.256Z,1018.71
2019-04-14T09:38:46.232Z,1018.73
2019-04-14T09:39:46.267Z,1018.74
2019-04-14T09:40:46.184Z,1018.75
2019-04-14T09:41:46.162Z,1018.73
2019-04-14T09:42:46.139Z,1018.70
2019-04-14T09:43:46.117Z,1018.71
2019-04-14T09:44:46.099Z,1018.75
2019-04-14T09:45:46.087Z,1018.78
2019-04-14T09:46:46.050Z,1018.73
2019-04-14T09:47:46.033Z,1018.75
2019-04-14T09:48:46.005Z,1018.79
2019-04-14T09:49:45.985Z,1018.77
2019-04-14T09:50:45.963Z,1018.81
2019-04-14T09:51:45.941Z,1018.77
2019-04-14T09:52:45.928Z,1018.81
2019-04-14T09:53:45.897Z,1018.78
2019-04-14T09:54:45.875Z,1018.81
2019-04-14T09:55:45.853Z,1018.76
2019-04-14T09:56:45.830Z,1018.73
2019-04-14T09:57:45.808Z,1018.79
2019-04-14T09:58:45.787Z,1018.79
2019-04-14T09:59:45.766Z,1018.80
2019-04-14T10:00:45.746Z,1018.79
2019-04-14T10:01:45.741Z,1018.80
2019-04-14T10:02:45.707Z,1018.77
2019-04-14T10:03:45.679Z,1018.81
2019-04-14T10:04:45.670Z,1018.78
2019-04-14T10:05:45.665Z,1018.77
2019-04-14T10:06:45.613Z,1018.77
2019-04-14T10:07:45.594Z,1018.80
2019-04-14T10:08:45.574Z,1018.75
2019-04-14T10:09:45.551Z,1018.78
2019-04-14T10:10:45.528Z,1018.78
2019-04-14T10:11:48.932Z,1018.82
2019-04-14T10:12:45.574Z,1018.84
2019-04-14T10:13:45.469Z,1018.82
2019-04-14T10:14:45.449Z,1018.83
2019-04-14T10:15:45.426Z,1018.75
2019-04-14T10:16:45.402Z,1018.79
2019-04-14T10:17:45.397Z,1018.85
2019-04-14T10:18:45.364Z,1018.75
2019-04-14T10:19:45.350Z,1018.81
2019-04-14T10:20:45.335Z,1018.75
2019-04-14T10:21:45.329Z,1018.71
2019-04-14T10:22:45.278Z,1018.75
2019-04-14T10:23:45.257Z,1018.72
2019-04-14T10:24:45.270Z,1018.70
2019-04-14T10:25:45.220Z,1018.71
2019-04-14T10:26:45.198Z,1018.74
2019-04-14T10:27:45.176Z,1018.73
2019-04-14T10:28:45.159Z,1018.71
2019-04-14T10:29:45.135Z,1018.67
2019-04-14T10:30:45.119Z,1018.71
2019-04-14T10:31:45.107Z,1018.66
2019-04-14T10:32:45.078Z,1018.68
2019-04-14T10:33:45.058Z,1018.72
2019-04-14T10:34:45.038Z,1018.76
2019-04-14T10:35:45.016Z,1018.78
2019-04-14T10:36:45.003Z,1018.80
2019-04-14T10:37:44.980Z,1018.83
2019-04-14T10:38:44.964Z,1018.84
2019-04-14T10:39:44.940Z,1018.84
2019-04-14T10:40:44.971Z,1018.85
2019-04-14T10:41:44.904Z,1018.92
2019-04-14T10:42:44.893Z,1018.91
2019-04-14T10:43:44.891Z,1018.88
2019-04-14T10:44:44.856Z,1018.83
2019-04-14T10:45:44.850Z,1018.83
2019-04-14T10:46:44.818Z,1018.86
2019-04-14T10:47:44.799Z,1018.84
2019-04-14T10:48:44.781Z,1018.87
2019-04-14T10:49:44.772Z,1018.86
2019-04-14T10:50:44.749Z,1018.87
2019-04-14T10:51:44.737Z,1018.80
2019-04-14T10:52:44.789Z,1018.84
2019-04-14T10:53:44.703Z,1018.82
2019-04-14T10:54:44.685Z,1018.82
2019-04-14T10:55:44.669Z,1018.75
2019-04-14T10:56:44.652Z,1018.80
2019-04-14T10:57:44.639Z,1018.81
2019-04-14T10:58:44.621Z,1018.79
2019-04-14T10:59:44.608Z,1018.88
2019-04-14T11:00:44.590Z,1018.78
2019-04-14T11:01:44.577Z,1018.73
2019-04-14T11:02:44.564Z,1018.73
2019-04-14T11:03:44.543Z,1018.68
2019-04-14T11:04:44.528Z,1018.69
2019-04-14T11:05:44.514Z,1018.79
2019-04-14T11:06:44.494Z,1018.79
2019-04-14T11:07:44.486Z,1018.83
2019-04-14T11:08:44.485Z,1018.80
2019-04-14T11:09:44.446Z,1018.75
2019-04-14T11:10:44.429Z,1018.75
2019-04-14T11:11:44.443Z,1018.75
2019-04-14T11:12:44.398Z,1018.77
2019-04-14T11:13:44.423Z,1018.78
2019-04-14T11:14:44.365Z,1018.71
2019-04-14T11:15:44.348Z,1018.77
2019-04-14T11:16:44.349Z,1018.75
2019-04-14T11:17:44.315Z,1018.73
2019-04-14T11:18:44.301Z,1018.76
2019-04-14T11:19:44.285Z,1018.75
2019-04-14T11:20:44.266Z,1018.82
2019-04-14T11:21:44.248Z,1018.78
2019-04-14T11:22:44.235Z,1018.78
2019-04-14T11:23:44.271Z,1018.81
2019-04-14T11:24:44.202Z,1018.75
2019-04-14T11:25:44.183Z,1018.79
2019-04-14T11:26:44.167Z,1018.72
2019-04-14T11:27:44.150Z,1018.73
2019-04-14T11:28:44.133Z,1018.74
2019-04-14T11:29:44.125Z,1018.73
2019-04-14T11:30:44.098Z,1018.74
2019-04-14T11:31:44.164Z,1018.72
2019-04-14T11:32:44.065Z,1018.73
2019-04-14T11:33:44.049Z,1018.68
2019-04-14T11:34:44.029Z,1018.70
2019-04-14T11:35:44.011Z,1018.70
2019-04-14T11:36:44.014Z,1018.73
2019-04-14T11:37:43.982Z,1018.74
2019-04-14T11:38:43.959Z,1018.76
2019-04-14T11:39:43.996Z,1018.74
2019-04-14T11:40:43.925Z,1018.75
2019-04-14T11:41:43.906Z,1018.75
2019-04-14T11:42:52.152Z,1018.83
2019-04-14T11:43:43.875Z,1018.83
2019-04-14T11:44:43.872Z,1018.73
2019-04-14T11:45:43.842Z,1018.77
2019-04-14T11:46:43.821Z,1018.80
2019-04-14T11:47:43.815Z,1018.81
2019-04-14T11:48:43.794Z,1018.78
2019-04-14T11:49:43.780Z,1018.75
2019-04-14T11:50:43.764Z,1018.82
2019-04-14T11:51:54.676Z,1018.74
2019-04-14T11:52:43.733Z,1018.78
2019-04-14T11:53:43.718Z,1018.71
2019-04-14T11:54:43.696Z,1018.76
2019-04-14T11:55:43.683Z,1018.72
2019-04-14T11:56:43.664Z,1018.70
2019-04-14T11:57:43.656Z,1018.68
2019-04-14T11:58:43.629Z,1018.77
2019-04-14T11:59:43.631Z,1018.78
2019-04-14T12:00:43.602Z,1018.77
2019-04-14T12:01:43.586Z,1018.88
2019-04-14T12:02:43.565Z,1018.84
2019-04-14T12:03:43.552Z,1018.84
2019-04-14T12:04:43.532Z,1018.85
2019-04-14T12:05:44.570Z,1018.83
2019-04-14T12:06:43.520Z,1018.77
2019-04-14T12:07:43.486Z,1018.78
2019-04-14T12:08:45.596Z,1018.81
2019-04-14T12:09:43.464Z,1018.85
2019-04-14T12:10:43.438Z,1018.77
2019-04-14T12:11:43.424Z,1018.90
2019-04-14T12:12:43.421Z,1018.91
2019-04-14T12:13:43.404Z,1018.87
2019-04-14T12:14:43.396Z,1019.02
2019-04-14T12:15:43.374Z,1019.00
2019-04-14T12:16:43.352Z,1018.89
2019-04-14T12:17:43.340Z,1018.92
2019-04-14T12:18:43.331Z,1019.03
2019-04-14T12:19:43.317Z,1018.95
2019-04-14T12:20:43.299Z,1018.89
2019-04-14T12:21:43.287Z,1018.88